createdAt,value
2023-09-29T00:01:35.582Z,23.06
2023-09-29T00:04:01.948Z,23.04
2023-09-29T00:06:28.330Z,23.03
2023-09-29T00:08:54.784Z,23.04
2023-09-29T00:11:21.232Z,23.03
2023-09-29T00:13:47.525Z,23.01
2023-09-29T00:16:13.800Z,23.01
2023-09-29T00:18:40.128Z,22.98
2023-09-29T00:21:06.476Z,22.98
2023-09-29T00:23:32.929Z,23.00
2023-09-29T00:25:59.226Z,23.00
2023-09-29T00:28:25.499Z,23.02
2023-09-29T00:30:51.764Z,22.99
2023-09-29T00:33:18.264Z,22.97
2023-09-29T00:35:44.588Z,22.98
2023-09-29T00:38:11.052Z,22.99
2023-09-29T00:40:37.314Z,22.97
2023-09-29T00:43:03.604Z,22.97
2023-09-29T00:45:29.939Z,22.98
2023-09-29T00:47:56.424Z,22.98
2023-09-29T00:50:22.772Z,22.95
2023-09-29T00:52:49.063Z,22.97
2023-09-29T00:55:15.351Z,22.92
2023-09-29T00:57:41.610Z,22.93
2023-09-29T01:00:07.867Z,22.95
2023-09-29T01:02:34.268Z,22.94
2023-09-29T01:05:00.587Z,22.96
2023-09-29T01:07:27.001Z,22.94
2023-09-29T01:09:53.556Z,22.93
2023-09-29T01:12:19.845Z,22.93
2023-09-29T01:14:46.226Z,22.92
2023-09-29T01:17:12.987Z,22.93
2023-09-29T01:19:39.354Z,22.93
2023-09-29T01:22:05.644Z,22.93
2023-09-29T01:24:31.949Z,22.89
2023-09-29T01:26:58.253Z,22.92
2023-09-29T01:29:24.597Z,22.90
2023-09-29T01:31:50.873Z,22.92
2023-09-29T01:34:17.118Z,22.91
2023-09-29T01:36:43.391Z,22.89
2023-09-29T01:39:09.715Z,22.91
2023-09-29T01:41:35.986Z,22.91
2023-09-29T01:44:02.286Z,22.87
2023-09-29T01:46:28.526Z,22.89
2023-09-29T01:48:55.047Z,22.89
2023-09-29T01:51:21.929Z,22.90
2023-09-29T01:53:48.285Z,22.85
2023-09-29T01:56:14.568Z,22.89
2023-09-29T01:58:40.860Z,22.86
2023-09-29T02:01:07.131Z,22.90
2023-09-29T02:03:33.488Z,22.89
2023-09-29T02:05:59.927Z,22.87
2023-09-29T02:08:26.413Z,22.88
2023-09-29T02:10:52.679Z,22.87
2023-09-29T02:13:19.994Z,22.84
2023-09-29T02:15:46.342Z,22.84
2023-09-29T02:18:12.738Z,22.86
2023-09-29T02:20:39.119Z,22.88
2023-09-29T02:23:05.380Z,22.79
2023-09-29T02:25:31.831Z,22.88
2023-09-29T02:27:58.193Z,22.88
2023-09-29T02:30:24.507Z,22.89
2023-09-29T02:32:50.833Z,22.86
2023-09-29T02:35:17.187Z,22.79
2023-09-29T02:37:43.437Z,22.83
2023-09-29T02:40:09.717Z,22.86
2023-09-29T02:42:36.004Z,22.80
2023-09-29T02:45:02.333Z,22.81
2023-09-29T02:47:28.742Z,22.86
2023-09-29T02:49:55.055Z,22.84
2023-09-29T02:52:21.343Z,22.82
2023-09-29T02:54:47.594Z,22.83
2023-09-29T02:57:13.965Z,22.78
2023-09-29T02:59:40.584Z,22.85
2023-09-29T03:02:07.218Z,22.83
2023-09-29T03:04:33.687Z,22.79
2023-09-29T03:07:00.061Z,22.78
2023-09-29T03:09:26.611Z,22.83
2023-09-29T03:11:52.889Z,22.81
2023-09-29T03:14:19.178Z,22.79
2023-09-29T03:16:45.487Z,22.76
2023-09-29T03:19:11.747Z,22.76
2023-09-29T03:21:38.071Z,22.79
2023-09-29T03:24:04.383Z,22.76
2023-09-29T03:26:30.754Z,22.76
2023-09-29T03:28:57.259Z,22.84
2023-09-29T03:31:23.717Z,22.79
2023-09-29T03:33:49.977Z,22.77
2023-09-29T03:36:16.342Z,22.75
2023-09-29T03:38:42.601Z,22.82
2023-09-29T03:41:08.868Z,22.79
2023-09-29T03:43:35.228Z,22.78
2023-09-29T03:46:01.496Z,22.79
2023-09-29T03:48:27.890Z,22.79
2023-09-29T03:50:54.246Z,22.76
2023-09-29T03:53:20.526Z,22.80
2023-09-29T03:55:46.791Z,22.77
2023-09-29T03:58:13.160Z,22.75
2023-09-29T04:00:39.436Z,22.76
2023-09-29T04:03:07.305Z,22.71
2023-09-29T04:05:33.648Z,22.75
2023-09-29T04:07:59.957Z,22.74
2023-09-29T04:10:26.192Z,22.75
2023-09-29T04:12:52.492Z,22.76
2023-09-29T04:15:18.757Z,22.71
2023-09-29T04:17:45.344Z,22.71
2023-09-29T04:20:11.798Z,22.77
2023-09-29T04:22:38.041Z,22.73
2023-09-29T04:25:04.374Z,22.71
2023-09-29T04:27:30.639Z,22.69
2023-09-29T04:29:57.010Z,22.72
2023-09-29T04:32:23.311Z,22.69
2023-09-29T04:34:49.576Z,22.71
2023-09-29T04:37:15.863Z,22.70
2023-09-29T04:39:42.173Z,22.70
2023-09-29T04:42:08.442Z,22.74
2023-09-29T04:44:34.752Z,22.71
2023-09-29T04:47:01.052Z,22.70
2023-09-29T04:49:27.334Z,22.69
2023-09-29T04:51:53.575Z,22.75
2023-09-29T04:54:19.856Z,22.68
2023-09-29T04:56:46.109Z,22.71
2023-09-29T04:59:12.360Z,22.73
2023-09-29T05:01:38.616Z,22.67
2023-09-29T05:04:05.024Z,22.68
2023-09-29T05:06:31.382Z,22.67
2023-09-29T05:08:57.965Z,22.74
2023-09-29T05:11:24.533Z,22.67
2023-09-29T05:13:50.967Z,22.70
2023-09-29T05:16:17.237Z,22.70
2023-09-29T05:18:43.596Z,22.71
2023-09-29T05:21:10.018Z,22.71
2023-09-29T05:23:36.319Z,22.70
2023-09-29T05:26:02.640Z,22.69
2023-09-29T05:28:28.911Z,22.67
2023-09-29T05:30:55.229Z,22.67
2023-09-29T05:33:21.581Z,22.65
2023-09-29T05:35:47.995Z,22.71
2023-09-29T05:38:14.322Z,22.64
2023-09-29T05:40:40.595Z,22.44
2023-09-29T05:43:06.854Z,22.39
2023-09-29T05:45:33.604Z,22.31
2023-09-29T05:47:59.917Z,22.39
2023-09-29T05:50:26.226Z,22.39
2023-09-29T05:53:09.258Z,22.41
2023-09-29T05:55:37.053Z,22.40
2023-09-29T05:58:03.300Z,22.45
2023-09-29T06:00:29.626Z,22.49
2023-09-29T06:02:55.984Z,22.50
2023-09-29T06:05:22.380Z,22.51
2023-09-29T06:07:48.853Z,22.52
2023-09-29T06:10:15.144Z,22.50
2023-09-29T06:12:41.402Z,22.52
2023-09-29T06:15:07.709Z,22.52
2023-09-29T06:17:34.263Z,22.53
2023-09-29T06:20:00.554Z,22.52
2023-09-29T06:22:27.041Z,22.53
2023-09-29T06:24:53.342Z,22.54
2023-09-29T06:27:19.676Z,22.53
2023-09-29T06:29:52.280Z,22.52
2023-09-29T06:32:18.596Z,22.55
2023-09-29T06:34:44.893Z,22.54
2023-09-29T06:37:11.378Z,22.55
2023-09-29T06:39:37.685Z,22.57
2023-09-29T06:42:04.068Z,22.58
2023-09-29T06:44:30.391Z,22.58
2023-09-29T06:46:56.717Z,22.58
2023-09-29T06:49:23.007Z,22.58
2023-09-29T06:51:49.536Z,22.58
2023-09-29T06:54:15.830Z,22.60
2023-09-29T06:56:42.448Z,22.59
2023-09-29T06:59:09.852Z,22.59
2023-09-29T07:01:36.752Z,22.61
2023-09-29T07:04:08.142Z,22.61
2023-09-29T07:06:35.318Z,22.61
2023-09-29T07:09:01.645Z,22.62
2023-09-29T07:11:27.974Z,22.60
2023-09-29T07:13:54.231Z,22.61
2023-09-29T07:16:20.684Z,22.60
2023-09-29T07:18:47.232Z,22.61
2023-09-29T07:21:13.644Z,22.61
2023-09-29T07:23:40.054Z,22.61
2023-09-29T07:26:06.821Z,22.62
2023-09-29T07:28:33.091Z,22.63
2023-09-29T07:30:59.415Z,22.64
2023-09-29T07:33:25.766Z,22.64
2023-09-29T07:35:52.135Z,22.63
2023-09-29T07:38:18.422Z,22.64
2023-09-29T07:40:44.680Z,22.63
2023-09-29T07:43:10.927Z,22.64
2023-09-29T07:45:37.248Z,22.65
2023-09-29T07:48:03.615Z,22.66
2023-09-29T07:50:29.957Z,22.65
2023-09-29T07:52:56.199Z,22.66
2023-09-29T07:55:22.481Z,22.65
2023-09-29T07:57:48.761Z,22.68
2023-09-29T08:00:15.065Z,22.69
2023-09-29T08:02:41.508Z,22.70
2023-09-29T08:05:07.836Z,22.68
2023-09-29T08:07:34.089Z,22.70
2023-09-29T08:10:00.345Z,22.70
2023-09-29T08:12:26.695Z,22.72
2023-09-29T08:14:53.148Z,22.72
2023-09-29T08:17:19.448Z,22.72
2023-09-29T08:19:45.716Z,22.72
2023-09-29T08:22:12.103Z,22.72
2023-09-29T08:24:38.599Z,22.71
2023-09-29T08:27:04.950Z,22.72
2023-09-29T08:29:31.296Z,22.74
2023-09-29T08:31:57.584Z,22.68
2023-09-29T08:34:23.972Z,22.73
2023-09-29T08:36:50.313Z,22.72
2023-09-29T08:39:24.170Z,22.72
2023-09-29T08:41:50.471Z,22.71
2023-09-29T08:44:16.734Z,22.74
2023-09-29T08:46:43.081Z,22.74
2023-09-29T08:49:09.571Z,22.73
2023-09-29T08:51:35.838Z,22.74
2023-09-29T08:54:02.341Z,22.72
2023-09-29T08:56:28.650Z,22.74
2023-09-29T08:58:55.297Z,22.73
2023-09-29T09:01:22.903Z,22.72
2023-09-29T09:03:49.374Z,22.73
2023-09-29T09:06:15.753Z,22.75
2023-09-29T09:08:42.121Z,22.75
2023-09-29T09:11:08.556Z,22.75
2023-09-29T09:13:34.795Z,22.74
2023-09-29T09:16:01.051Z,22.75
2023-09-29T09:18:27.350Z,22.74
2023-09-29T09:20:53.771Z,22.73
2023-09-29T09:23:20.100Z,22.74
2023-09-29T09:25:46.360Z,22.72
2023-09-29T09:28:12.612Z,22.74
2023-09-29T09:30:39.041Z,22.73
2023-09-29T09:33:05.614Z,22.74
2023-09-29T09:35:31.980Z,22.74
2023-09-29T09:37:58.286Z,22.73
2023-09-29T09:40:24.599Z,22.74
2023-09-29T09:42:50.940Z,22.74
2023-09-29T09:45:17.238Z,22.73
2023-09-29T09:47:43.685Z,22.74
2023-09-29T09:50:09.995Z,22.73
2023-09-29T09:52:36.248Z,22.74
2023-09-29T09:55:03.824Z,22.73
2023-09-29T09:57:30.107Z,22.73
2023-09-29T09:59:56.334Z,22.73
2023-09-29T10:02:22.742Z,22.73
2023-09-29T10:04:49.057Z,22.74
2023-09-29T10:07:15.488Z,22.74
2023-09-29T10:09:41.724Z,22.73
2023-09-29T10:12:08.077Z,22.73
2023-09-29T10:14:34.402Z,22.73
2023-09-29T10:17:00.745Z,22.74
2023-09-29T10:19:26.991Z,22.74
2023-09-29T10:21:53.287Z,22.73
2023-09-29T10:24:19.556Z,22.73
2023-09-29T10:26:46.073Z,22.74
2023-09-29T10:29:12.479Z,22.75
2023-09-29T10:31:38.966Z,22.73
2023-09-29T10:34:05.236Z,22.73
2023-09-29T10:36:31.715Z,22.73
2023-09-29T10:38:57.999Z,22.73
2023-09-29T10:41:34.815Z,22.74
2023-09-29T10:44:02.514Z,22.74
2023-09-29T10:46:28.797Z,22.74
2023-09-29T10:48:55.177Z,22.73
2023-09-29T10:51:21.577Z,22.72
2023-09-29T10:53:47.973Z,22.74
2023-09-29T10:56:14.324Z,22.74
2023-09-29T10:58:40.611Z,22.74
2023-09-29T11:01:06.912Z,22.75
2023-09-29T11:03:33.377Z,22.73
2023-09-29T11:05:59.858Z,22.72
2023-09-29T11:08:26.168Z,22.74
2023-09-29T11:10:52.520Z,22.74
2023-09-29T11:13:19.080Z,22.73
2023-09-29T11:15:45.477Z,22.71
2023-09-29T11:18:11.899Z,22.68
2023-09-29T11:20:38.457Z,22.67
2023-09-29T11:23:05.031Z,22.66
2023-09-29T11:25:31.540Z,22.65
2023-09-29T11:27:57.803Z,22.66
2023-09-29T11:30:24.145Z,22.65
2023-09-29T11:32:50.506Z,22.65
2023-09-29T11:35:16.848Z,22.66
2023-09-29T11:37:43.110Z,22.66
2023-09-29T11:40:09.358Z,22.67
2023-09-29T11:42:35.915Z,22.68
2023-09-29T11:45:02.286Z,22.70
2023-09-29T11:47:28.629Z,22.72
2023-09-29T11:49:54.923Z,22.74
2023-09-29T11:52:21.231Z,22.66
2023-09-29T11:54:47.477Z,22.73
2023-09-29T11:57:13.779Z,22.81
2023-09-29T11:59:40.062Z,22.77
2023-09-29T12:02:06.364Z,22.75
2023-09-29T12:04:32.711Z,22.78
2023-09-29T12:06:59.146Z,22.76
2023-09-29T12:09:25.472Z,22.74
2023-09-29T12:11:51.868Z,22.74
2023-09-29T12:14:18.197Z,22.77
2023-09-29T12:16:44.573Z,22.77
2023-09-29T12:19:10.870Z,22.78
2023-09-29T12:21:37.339Z,22.76
2023-09-29T12:24:03.688Z,22.79
2023-09-29T12:26:29.985Z,22.79
2023-09-29T12:28:56.464Z,22.83
2023-09-29T12:31:22.806Z,22.85
2023-09-29T12:33:59.329Z,22.91
2023-09-29T12:36:25.943Z,22.93
2023-09-29T12:38:52.351Z,22.89
2023-09-29T12:41:18.637Z,22.94
2023-09-29T12:43:44.916Z,22.91
2023-09-29T12:46:11.219Z,22.91
2023-09-29T12:48:37.608Z,22.90
2023-09-29T12:51:03.920Z,22.89
2023-09-29T12:53:30.206Z,22.88
2023-09-29T12:55:56.792Z,22.88
2023-09-29T12:58:23.314Z,22.89
2023-09-29T13:00:49.630Z,22.90
2023-09-29T13:03:16.164Z,22.88
2023-09-29T13:05:42.516Z,22.89
2023-09-29T13:08:08.985Z,22.89
2023-09-29T13:10:35.362Z,22.88
2023-09-29T13:13:01.810Z,22.88
2023-09-29T13:15:28.120Z,22.88
2023-09-29T13:17:54.564Z,22.88
2023-09-29T13:20:20.961Z,22.89
2023-09-29T13:22:47.248Z,22.88
2023-09-29T13:25:13.662Z,22.89
2023-09-29T13:27:39.933Z,22.90
2023-09-29T13:30:06.405Z,22.90
2023-09-29T13:32:32.800Z,22.90
2023-09-29T13:34:59.116Z,22.90
2023-09-29T13:37:25.419Z,22.90
2023-09-29T13:39:51.689Z,22.90
2023-09-29T13:42:18.011Z,22.91
2023-09-29T13:44:44.608Z,22.90
2023-09-29T13:47:10.954Z,22.91
2023-09-29T13:49:37.274Z,22.92
2023-09-29T13:52:03.552Z,22.91
2023-09-29T13:54:30.045Z,22.92
2023-09-29T13:56:56.405Z,22.92
2023-09-29T13:59:22.980Z,22.94
2023-09-29T14:01:49.345Z,22.94
2023-09-29T14:04:15.820Z,22.94
2023-09-29T14:06:43.117Z,22.95
2023-09-29T14:09:16.331Z,22.95
2023-09-29T14:11:44.279Z,22.95
2023-09-29T14:14:10.650Z,22.96
2023-09-29T14:16:37.019Z,22.95
2023-09-29T14:19:03.668Z,22.96
2023-09-29T14:21:30.105Z,22.96
2023-09-29T14:23:56.777Z,22.95
2023-09-29T14:26:23.244Z,22.96
2023-09-29T14:28:49.532Z,22.96
2023-09-29T14:31:15.863Z,22.97
2023-09-29T14:33:42.247Z,22.95
2023-09-29T14:36:08.555Z,22.95
2023-09-29T14:38:34.846Z,22.96
2023-09-29T14:41:01.124Z,22.96
2023-09-29T14:43:27.367Z,22.97
2023-09-29T14:45:53.682Z,22.97
2023-09-29T14:48:19.977Z,22.97
2023-09-29T14:50:46.332Z,22.96
2023-09-29T14:53:12.692Z,22.96
2023-09-29T14:55:38.992Z,22.97
2023-09-29T14:58:05.272Z,22.96
2023-09-29T15:00:31.648Z,22.96
2023-09-29T15:02:58.074Z,22.96
2023-09-29T15:05:24.445Z,22.96
2023-09-29T15:07:50.756Z,22.96
2023-09-29T15:10:17.008Z,22.96
2023-09-29T15:12:43.357Z,22.96
2023-09-29T15:15:09.742Z,22.96
2023-09-29T15:17:36.091Z,22.95
2023-09-29T15:20:02.551Z,22.95
2023-09-29T15:22:28.891Z,22.96
2023-09-29T15:24:55.173Z,22.96
2023-09-29T15:27:21.472Z,22.95
2023-09-29T15:29:47.859Z,22.96
2023-09-29T15:32:14.125Z,22.94
2023-09-29T15:34:40.485Z,22.94
2023-09-29T15:37:06.754Z,22.95
2023-09-29T15:39:33.082Z,22.93
2023-09-29T15:41:59.660Z,22.95
2023-09-29T15:44:25.983Z,22.94
2023-09-29T15:46:52.550Z,22.95
2023-09-29T15:49:18.799Z,22.94
2023-09-29T15:51:45.076Z,22.94
2023-09-29T15:54:11.376Z,22.94
2023-09-29T15:56:37.657Z,22.94
2023-09-29T15:59:05.562Z,22.94
2023-09-29T16:01:31.831Z,22.92
2023-09-29T16:03:58.626Z,22.92
2023-09-29T16:06:25.203Z,22.93
2023-09-29T16:08:51.584Z,22.92
2023-09-29T16:11:17.990Z,22.92
2023-09-29T16:13:44.307Z,22.93
2023-09-29T16:16:10.670Z,22.92
2023-09-29T16:18:37.101Z,22.92
2023-09-29T16:21:03.470Z,22.93
2023-09-29T16:23:30.173Z,22.92
2023-09-29T16:25:56.472Z,22.92
2023-09-29T16:28:22.758Z,22.92
2023-09-29T16:30:49.039Z,22.91
2023-09-29T16:33:15.440Z,22.91
2023-09-29T16:35:41.760Z,22.91
2023-09-29T16:38:08.048Z,22.91
2023-09-29T16:40:34.288Z,22.91
2023-09-29T16:43:00.678Z,22.90
2023-09-29T16:45:37.120Z,22.91
2023-09-29T16:48:03.559Z,22.89
2023-09-29T16:50:29.887Z,22.89
2023-09-29T16:52:56.202Z,22.91
2023-09-29T16:55:22.620Z,22.90
2023-09-29T16:57:48.902Z,22.88
2023-09-29T17:00:25.171Z,22.89
2023-09-29T17:02:56.584Z,22.91
2023-09-29T17:05:33.067Z,22.89
2023-09-29T17:08:04.457Z,22.89
2023-09-29T17:10:40.690Z,22.88
2023-09-29T17:13:06.955Z,22.87
2023-09-29T17:15:43.255Z,22.88
2023-09-29T17:18:19.665Z,22.89
2023-09-29T17:20:45.989Z,22.87
2023-09-29T17:23:22.230Z,22.89
2023-09-29T17:25:58.520Z,22.88
2023-09-29T17:28:25.107Z,22.87
2023-09-29T17:31:00.741Z,22.88
2023-09-29T17:33:27.142Z,22.88
2023-09-29T17:35:53.520Z,22.88
2023-09-29T17:38:19.795Z,22.88
2023-09-29T17:40:46.071Z,22.88
2023-09-29T17:43:13.255Z,22.87
2023-09-29T17:45:40.910Z,22.86
2023-09-29T17:50:33.624Z,22.86
2023-09-29T17:52:59.908Z,22.88
2023-09-29T17:55:26.554Z,22.87
2023-09-29T17:57:52.815Z,22.86
2023-09-29T18:00:19.115Z,22.87
2023-09-29T18:02:45.420Z,22.86
2023-09-29T18:05:11.712Z,22.87
2023-09-29T18:07:38.025Z,22.86
2023-09-29T18:10:04.307Z,22.86
2023-09-29T18:12:30.965Z,22.86
2023-09-29T18:14:57.332Z,22.86
2023-09-29T18:17:24.015Z,22.85
2023-09-29T18:19:51.011Z,22.87
2023-09-29T18:22:17.262Z,22.87
2023-09-29T18:24:43.580Z,22.86
2023-09-29T18:27:09.907Z,22.86
2023-09-29T18:29:36.245Z,22.86
2023-09-29T18:32:02.659Z,22.85
2023-09-29T18:34:29.128Z,22.86
2023-09-29T18:36:55.422Z,22.85
2023-09-29T18:39:21.801Z,22.84
2023-09-29T18:41:51.043Z,22.85
2023-09-29T18:44:17.339Z,22.85
2023-09-29T18:46:43.618Z,22.86
2023-09-29T18:49:09.945Z,22.85
2023-09-29T18:51:36.391Z,22.86
2023-09-29T18:54:02.733Z,22.83
2023-09-29T18:56:29.041Z,22.84
2023-09-29T18:58:55.381Z,22.85
2023-09-29T19:01:21.837Z,22.84
2023-09-29T19:03:48.187Z,22.84
2023-09-29T19:06:14.653Z,22.85
2023-09-29T19:08:41.066Z,22.84
2023-09-29T19:11:07.380Z,22.84
2023-09-29T19:13:33.621Z,22.83
2023-09-29T19:15:59.955Z,22.83
2023-09-29T19:18:26.348Z,22.84
2023-09-29T19:20:55.304Z,22.84
2023-09-29T19:23:22.207Z,22.85
2023-09-29T19:25:48.440Z,22.83
2023-09-29T19:28:14.721Z,22.84
2023-09-29T19:30:40.979Z,22.85
2023-09-29T19:33:08.861Z,22.86
2023-09-29T19:35:36.528Z,22.84
2023-09-29T19:38:02.807Z,22.83
2023-09-29T19:40:29.062Z,22.85
2023-09-29T19:42:58.736Z,22.84
2023-09-29T19:45:25.062Z,22.83
2023-09-29T19:47:51.449Z,22.85
2023-09-29T19:50:17.701Z,22.84
2023-09-29T19:52:43.990Z,22.84
2023-09-29T19:55:10.462Z,22.81
2023-09-29T19:57:36.770Z,22.82
2023-09-29T20:00:03.080Z,22.83
2023-09-29T20:02:29.739Z,22.83
2023-09-29T20:04:56.035Z,22.83
2023-09-29T20:07:22.303Z,22.83
2023-09-29T20:09:48.548Z,22.84
2023-09-29T20:12:14.842Z,22.84
2023-09-29T20:14:41.161Z,22.82
2023-09-29T20:17:07.524Z,22.83
2023-09-29T20:19:33.824Z,22.82
2023-09-29T20:22:00.062Z,22.83
2023-09-29T20:24:26.359Z,22.80
2023-09-29T20:26:52.638Z,22.83
2023-09-29T20:29:18.921Z,22.82
2023-09-29T20:31:45.241Z,22.82
2023-09-29T20:34:11.740Z,22.82
2023-09-29T20:36:38.074Z,22.84
2023-09-29T20:39:04.387Z,22.84
2023-09-29T20:41:30.675Z,22.83
2023-09-29T20:43:57.050Z,22.82
2023-09-29T20:46:23.511Z,22.82
2023-09-29T20:48:49.862Z,22.83
2023-09-29T20:51:16.214Z,22.83
2023-09-29T20:53:42.554Z,22.83
2023-09-29T20:56:08.829Z,22.82
2023-09-29T20:58:35.088Z,22.83
2023-09-29T21:01:01.397Z,22.83
2023-09-29T21:03:27.929Z,22.83
2023-09-29T21:05:54.444Z,22.83
2023-09-29T21:08:21.997Z,22.84
2023-09-29T21:10:48.322Z,22.83
2023-09-29T21:13:14.755Z,22.81
2023-09-29T21:15:41.031Z,22.85
2023-09-29T21:18:07.680Z,22.83
2023-09-29T21:20:34.065Z,22.84
2023-09-29T21:23:00.386Z,22.82
2023-09-29T21:25:31.454Z,22.83
2023-09-29T21:27:57.892Z,22.83
2023-09-29T21:30:24.159Z,22.83
2023-09-29T21:32:50.538Z,22.83
2023-09-29T21:35:16.872Z,22.83
2023-09-29T21:37:43.144Z,22.81
2023-09-29T21:40:09.436Z,22.83
2023-09-29T21:42:35.832Z,22.82
2023-09-29T21:45:02.232Z,22.83
2023-09-29T21:47:28.595Z,22.82
2023-09-29T21:49:54.947Z,22.83
2023-09-29T21:52:21.280Z,22.84
2023-09-29T21:54:47.526Z,22.84
2023-09-29T21:57:13.930Z,22.83
2023-09-29T21:59:40.248Z,22.83
2023-09-29T22:02:06.527Z,22.81
2023-09-29T22:04:32.946Z,22.84
2023-09-29T22:06:59.287Z,22.86
2023-09-29T22:09:25.564Z,22.82
2023-09-29T22:11:51.870Z,22.83
2023-09-29T22:14:18.115Z,22.85
2023-09-29T22:16:44.409Z,22.84
2023-09-29T22:19:10.681Z,22.85
2023-09-29T22:21:37.028Z,22.83
2023-09-29T22:24:03.366Z,22.80
2023-09-29T22:26:29.629Z,22.86
2023-09-29T22:28:55.914Z,22.83
2023-09-29T22:31:26.058Z,22.85
2023-09-29T22:33:52.582Z,22.83
2023-09-29T22:36:19.020Z,22.82
2023-09-29T22:38:45.473Z,22.80
2023-09-29T22:41:11.892Z,22.81
2023-09-29T22:43:38.130Z,22.84
2023-09-29T22:46:04.502Z,22.82
2023-09-29T22:48:30.831Z,22.81
2023-09-29T22:50:57.278Z,22.81
2023-09-29T22:53:23.559Z,22.83
2023-09-29T22:55:49.815Z,22.82
2023-09-29T22:58:16.089Z,22.82
2023-09-29T23:00:43.209Z,22.79
2023-09-29T23:03:09.919Z,22.84
2023-09-29T23:05:36.301Z,22.82
2023-09-29T23:08:02.577Z,22.80
2023-09-29T23:10:33.332Z,22.82
2023-09-29T23:12:59.614Z,22.84
2023-09-29T23:15:25.916Z,22.82
2023-09-29T23:17:52.296Z,22.82
2023-09-29T23:20:18.648Z,22.82
2023-09-29T23:22:44.922Z,22.79
2023-09-29T23:25:11.220Z,22.81
2023-09-29T23:27:37.679Z,22.81
2023-09-29T23:30:03.949Z,22.81
2023-09-29T23:32:30.315Z,22.82
2023-09-29T23:34:56.616Z,22.82
2023-09-29T23:37:22.853Z,22.82
2023-09-29T23:39:49.250Z,22.79
2023-09-29T23:42:15.812Z,22.80
2023-09-29T23:44:42.104Z,22.79
2023-09-29T23:47:08.362Z,22.77
2023-09-29T23:49:34.605Z,22.81
2023-09-29T23:52:01.003Z,22.81
2023-09-29T23:54:27.521Z,22.82
2023-09-29T23:56:53.827Z,22.78
2023-09-29T23:59:20.102Z,22.80
